Terminal Aerodrome Forecast
Issued by NWS Atlanta, GA

Home | Current Version | Previous Version | Text Only | Print | Product List | Glossary On
Versions: 1 2 3 4 5 6 7 8 9 10 11 12 13 14
261
FTUS42 KFFC 172336
TAFMCN
TAF
KMCN 172336Z 1800/1824 08005KT 6SM BR VCSH BKN020
     FM180400 08004KT 2SM -DZ BR BKN006
     FM181200 03003KT 1SM -DZ BR OVC004
     FM181600 28004KT 6SM BR OVC008
     FM181900 28006KT 4SM -RA BR BKN010
     FM182300 28005KT 6SM BR VCSH SCT020 OVC100=

USA.gov is the U.S. government's official web portal to all federal, state and local government web resources and services.